createdAt,value
2023-05-15T08:03:37.984Z,4004.00
2023-05-15T08:04:37.993Z,4280.00
2023-05-15T08:05:37.902Z,4484.00
2023-05-15T08:07:37.952Z,4600.00
2023-05-15T08:08:37.981Z,4480.00
2023-05-15T08:09:37.998Z,4452.00
2023-05-15T08:10:38.020Z,4228.00
2023-05-15T08:11:38.054Z,4140.00
2023-05-15T08:12:38.080Z,3892.00
2023-05-15T08:14:38.239Z,3896.00
2023-05-15T08:15:38.492Z,4216.00
2023-05-15T08:16:38.180Z,3928.00
2023-05-15T08:17:38.265Z,3676.00
2023-05-15T08:18:38.256Z,3668.00
2023-05-15T08:20:38.451Z,4136.00
2023-05-15T08:21:38.309Z,4032.00
2023-05-15T08:22:38.637Z,4092.00
2023-05-15T08:23:38.362Z,3988.00
2023-05-15T08:24:38.418Z,3460.00
2023-05-15T08:25:38.419Z,3144.00
2023-05-15T08:26:38.452Z,3144.00
2023-05-15T08:27:38.476Z,3232.00
2023-05-15T08:28:38.806Z,3228.00
2023-05-15T08:29:39.629Z,3272.00
2023-05-15T08:31:38.649Z,3340.00
2023-05-15T08:32:38.680Z,3388.00
2023-05-15T08:33:38.628Z,3608.00
2023-05-15T08:34:38.813Z,3772.00
2023-05-15T08:35:38.697Z,3252.00
2023-05-15T08:36:39.700Z,3228.00
2023-05-15T08:37:38.732Z,3264.00
2023-05-15T08:38:38.753Z,3252.00
2023-05-15T08:39:38.783Z,3216.00
2023-05-15T08:40:40.230Z,3268.00
2023-05-15T08:41:40.888Z,3304.00
2023-05-15T08:42:38.867Z,3272.00
2023-05-15T08:44:38.914Z,3316.00
2023-05-15T08:45:38.952Z,3376.00
2023-05-15T08:46:39.037Z,3412.00
2023-05-15T08:47:39.360Z,3504.00
2023-05-15T08:48:39.165Z,3628.00
2023-05-15T08:49:39.053Z,3756.00
2023-05-15T08:50:39.089Z,4004.00
2023-05-15T08:51:39.101Z,4164.00
2023-05-15T08:52:39.156Z,4032.00
2023-05-15T08:53:39.172Z,3836.00
2023-05-15T08:54:39.489Z,3956.00
2023-05-15T08:55:39.236Z,3972.00
2023-05-15T08:56:39.242Z,3980.00
2023-05-15T08:57:39.266Z,3996.00
2023-05-15T08:58:39.296Z,3948.00
2023-05-15T08:59:39.336Z,4020.00
2023-05-15T09:01:39.696Z,4088.00
2023-05-15T09:02:39.542Z,3880.00
2023-05-15T09:03:39.507Z,3844.00
2023-05-15T09:04:39.457Z,3780.00
2023-05-15T09:05:40.232Z,3808.00
2023-05-15T09:06:39.514Z,3880.00
2023-05-15T09:07:39.549Z,3920.00
2023-05-15T09:08:39.887Z,3924.00
2023-05-15T09:09:39.593Z,3800.00
2023-05-15T09:10:39.630Z,3732.00
2023-05-15T09:11:39.659Z,3680.00
2023-05-15T09:12:39.683Z,3652.00
2023-05-15T09:13:39.711Z,3608.00
2023-05-15T09:14:39.731Z,3564.00
2023-05-15T09:15:40.070Z,3516.00
2023-05-15T09:16:39.846Z,3464.00
2023-05-15T09:17:39.914Z,3396.00
2023-05-15T09:18:39.885Z,3356.00
2023-05-15T09:19:39.875Z,3364.00
2023-05-15T09:20:39.910Z,3360.00
2023-05-15T09:21:39.943Z,3352.00
2023-05-15T09:22:40.256Z,3340.00
2023-05-15T09:23:39.976Z,3352.00
2023-05-15T09:24:40.029Z,3392.00
2023-05-15T09:25:40.093Z,3444.00
2023-05-15T09:26:40.075Z,3472.00
2023-05-15T09:27:40.099Z,3424.00
2023-05-15T09:28:40.116Z,3424.00
2023-05-15T09:29:40.182Z,3440.00
2023-05-15T09:30:40.236Z,3424.00
2023-05-15T09:31:40.233Z,3412.00
2023-05-15T09:33:40.251Z,3404.00
2023-05-15T09:34:40.289Z,3356.00
2023-05-15T09:35:40.623Z,3336.00
2023-05-15T09:36:40.334Z,3316.00
2023-05-15T09:37:40.362Z,3312.00
2023-05-15T09:38:40.400Z,3280.00
2023-05-15T09:39:40.423Z,3256.00
2023-05-15T09:40:40.514Z,3256.00
2023-05-15T09:41:40.782Z,3244.00
2023-05-15T09:42:40.497Z,3240.00
2023-05-15T09:43:40.546Z,3216.00
2023-05-15T09:44:40.559Z,3192.00
2023-05-15T09:45:40.603Z,3156.00
2023-05-15T09:46:40.661Z,3128.00
2023-05-15T09:47:41.049Z,3176.00
2023-05-15T09:48:40.780Z,3168.00
2023-05-15T09:49:40.711Z,3116.00
2023-05-15T09:50:40.729Z,3084.00
2023-05-15T09:51:40.749Z,2992.00
2023-05-15T09:53:41.112Z,2828.00
2023-05-15T09:54:40.850Z,2856.00
2023-05-15T09:56:40.931Z,2888.00
2023-05-15T09:57:40.915Z,2916.00
2023-05-15T09:58:40.951Z,2928.00
2023-05-15T09:59:40.973Z,2948.00
2023-05-15T10:00:47.980Z,2932.00
2023-05-15T10:01:41.049Z,2908.00
2023-05-15T10:02:41.163Z,2864.00
2023-05-15T10:03:41.091Z,2860.00
2023-05-15T10:04:41.123Z,2876.00
2023-05-15T10:05:43.763Z,2856.00
2023-05-15T10:06:43.193Z,2844.00
2023-05-15T10:07:41.197Z,2848.00
2023-05-15T10:09:41.258Z,2832.00
2023-05-15T10:10:41.280Z,2808.00
2023-05-15T10:12:41.454Z,2772.00
2023-05-15T10:13:41.667Z,2804.00
2023-05-15T10:14:41.400Z,2780.00
2023-05-15T10:15:41.465Z,2788.00
2023-05-15T10:16:41.613Z,2824.00
2023-05-15T10:17:41.505Z,2796.00
2023-05-15T10:18:41.582Z,2784.00
2023-05-15T10:19:56.638Z,2796.00
2023-05-15T10:20:41.873Z,2880.00
2023-05-15T10:21:41.586Z,2900.00
2023-05-15T10:22:41.617Z,2884.00
2023-05-15T10:23:41.649Z,2780.00
2023-05-15T10:24:41.677Z,2908.00
2023-05-15T10:25:41.709Z,2912.00
2023-05-15T10:26:41.742Z,2944.00
2023-05-15T10:27:42.063Z,2952.00
2023-05-15T10:28:43.448Z,2944.00
2023-05-15T10:29:41.815Z,2912.00
2023-05-15T10:30:41.838Z,2912.00
2023-05-15T10:31:41.913Z,2936.00
2023-05-15T10:32:42.033Z,2948.00
2023-05-15T10:33:41.923Z,2968.00
2023-05-15T10:34:41.951Z,2956.00
2023-05-15T10:35:41.981Z,2968.00
2023-05-15T10:36:43.182Z,2988.00
2023-05-15T10:37:42.331Z,3000.00
2023-05-15T10:38:42.060Z,3016.00
2023-05-15T10:39:42.101Z,3024.00
2023-05-15T10:40:42.439Z,3028.00
2023-05-15T10:41:42.143Z,3044.00
2023-05-15T10:42:42.183Z,3060.00
2023-05-15T10:43:42.205Z,3080.00
2023-05-15T10:44:42.353Z,3064.00
2023-05-15T10:45:42.250Z,3164.00
2023-05-15T10:46:42.591Z,3024.00
2023-05-15T10:47:42.442Z,2996.00
2023-05-15T10:48:42.333Z,2992.00
2023-05-15T10:49:42.364Z,2992.00
2023-05-15T10:50:42.390Z,3048.00
2023-05-15T10:51:42.421Z,3056.00
2023-05-15T10:52:42.749Z,3052.00
2023-05-15T10:53:42.471Z,3048.00
2023-05-15T10:54:42.499Z,3052.00
2023-05-15T10:55:42.564Z,3044.00
2023-05-15T10:56:42.555Z,3044.00
2023-05-15T10:57:42.578Z,3080.00
2023-05-15T10:58:42.608Z,3064.00
2023-05-15T10:59:42.940Z,3104.00
2023-05-15T11:00:42.683Z,3084.00
2023-05-15T11:01:42.719Z,3104.00
2023-05-15T11:02:42.738Z,3096.00
2023-05-15T11:03:49.230Z,3100.00
2023-05-15T11:04:42.846Z,3104.00
2023-05-15T11:05:42.797Z,3112.00
2023-05-15T11:06:43.130Z,3124.00
2023-05-15T11:07:42.869Z,3124.00
2023-05-15T11:08:42.885Z,3152.00
2023-05-15T11:09:44.789Z,3120.00
2023-05-15T11:10:42.937Z,3172.00
2023-05-15T11:11:42.979Z,3232.00
2023-05-15T11:12:43.002Z,3224.00
2023-05-15T11:13:43.330Z,3252.00
2023-05-15T11:14:43.054Z,3300.00
2023-05-15T11:15:43.084Z,3316.00
2023-05-15T11:16:43.161Z,3348.00
2023-05-15T11:17:43.177Z,3372.00
2023-05-15T11:18:43.196Z,3372.00
2023-05-15T11:20:43.207Z,3396.00
2023-05-15T11:21:43.235Z,3420.00
2023-05-15T11:22:43.277Z,3416.00
2023-05-15T11:23:43.302Z,3416.00
2023-05-15T11:24:43.334Z,3448.00
2023-05-15T11:25:43.350Z,3444.00
2023-05-15T11:26:43.682Z,3492.00
2023-05-15T11:27:43.399Z,3508.00
2023-05-15T11:28:43.452Z,3532.00
2023-05-15T11:29:43.461Z,3476.00
2023-05-15T11:30:43.533Z,3412.00
2023-05-15T11:31:43.516Z,3392.00
2023-05-15T11:32:43.633Z,3332.00
2023-05-15T11:33:43.931Z,3284.00
2023-05-15T11:34:43.625Z,3264.00
2023-05-15T11:35:43.673Z,3272.00
2023-05-15T11:36:43.678Z,3248.00
2023-05-15T11:37:43.692Z,3228.00
2023-05-15T11:38:43.736Z,3176.00
2023-05-15T11:39:43.758Z,3240.00
2023-05-15T11:40:44.114Z,3240.00
2023-05-15T11:41:43.824Z,3256.00
2023-05-15T11:42:43.863Z,3316.00
2023-05-15T11:43:43.882Z,3356.00
2023-05-15T11:44:43.912Z,3360.00
2023-05-15T11:45:43.970Z,3360.00
2023-05-15T11:46:44.014Z,3392.00
2023-05-15T11:47:44.389Z,3376.00
2023-05-15T11:48:44.205Z,3360.00
2023-05-15T11:49:44.069Z,3372.00
2023-05-15T11:50:44.093Z,3368.00
2023-05-15T11:51:44.139Z,3360.00
2023-05-15T11:53:44.182Z,3416.00
2023-05-15T11:54:44.522Z,3448.00
2023-05-15T11:55:44.251Z,3492.00
2023-05-15T11:56:44.289Z,3528.00
2023-05-15T11:57:44.302Z,3540.00
2023-05-15T11:58:44.355Z,3548.00
2023-05-15T11:59:44.372Z,3564.00
2023-05-15T12:00:44.414Z,3568.00
2023-05-15T12:01:44.749Z,3564.00
2023-05-15T12:02:44.549Z,3584.00
2023-05-15T12:03:44.746Z,3604.00
2023-05-15T12:04:44.557Z,3616.00
2023-05-15T12:05:54.062Z,3640.00
2023-05-15T12:06:44.594Z,3652.00
2023-05-15T12:07:44.620Z,3672.00
2023-05-15T12:08:44.973Z,3696.00
2023-05-15T12:09:44.684Z,3696.00
2023-05-15T12:10:44.716Z,3688.00
2023-05-15T12:11:44.760Z,3676.00
2023-05-15T12:12:44.779Z,3664.00
2023-05-15T12:13:44.822Z,3672.00
2023-05-15T12:14:45.136Z,3680.00
2023-05-15T12:15:44.886Z,3708.00
2023-05-15T12:16:44.946Z,3736.00
2023-05-15T12:17:44.975Z,3708.00
2023-05-15T12:18:44.997Z,3676.00
2023-05-15T12:19:44.996Z,3656.00
2023-05-15T12:20:45.361Z,3672.00
2023-05-15T12:21:45.055Z,3676.00
2023-05-15T12:22:45.085Z,3676.00
2023-05-15T12:23:48.694Z,3676.00
2023-05-15T12:24:45.218Z,3680.00
2023-05-15T12:25:45.179Z,3700.00
2023-05-15T12:26:45.512Z,3760.00
2023-05-15T12:27:45.281Z,3852.00
2023-05-15T12:28:45.275Z,3908.00
2023-05-15T12:29:45.313Z,3940.00
2023-05-15T12:30:45.344Z,3956.00
2023-05-15T12:31:45.400Z,3976.00
2023-05-15T12:32:45.438Z,4004.00
2023-05-15T12:33:45.742Z,4052.00
2023-05-15T12:34:45.464Z,4080.00
2023-05-15T12:35:45.504Z,4076.00
2023-05-15T12:36:45.551Z,4064.00
2023-05-15T12:37:45.568Z,4056.00
2023-05-15T12:38:45.592Z,4064.00
2023-05-15T12:39:45.627Z,4092.00
2023-05-15T12:40:45.954Z,4156.00
2023-05-15T12:41:47.679Z,4200.00
2023-05-15T12:42:45.715Z,4276.00
2023-05-15T12:43:45.749Z,4420.00
2023-05-15T12:44:45.787Z,4608.00
2023-05-15T12:45:45.886Z,4820.00
2023-05-15T12:46:45.844Z,5144.00
2023-05-15T12:47:46.215Z,5440.00
2023-05-15T12:48:45.907Z,5584.00
2023-05-15T12:49:45.941Z,5608.00
2023-05-15T12:50:45.972Z,5340.00
2023-05-15T12:51:46.016Z,4748.00
2023-05-15T12:52:46.191Z,4532.00
2023-05-15T12:53:46.062Z,4448.00
2023-05-15T12:54:46.405Z,4360.00
2023-05-15T12:55:46.197Z,4516.00
2023-05-15T12:56:46.160Z,4508.00
2023-05-15T12:57:46.202Z,4792.00
2023-05-15T12:58:46.247Z,4944.00
2023-05-15T12:59:46.290Z,5064.00
2023-05-15T13:00:46.444Z,5104.00
2023-05-15T13:01:46.721Z,4988.00
2023-05-15T13:02:46.417Z,4964.00
2023-05-15T13:03:46.519Z,4900.00
2023-05-15T13:04:46.427Z,4880.00
2023-05-15T13:05:46.459Z,4944.00
2023-05-15T13:06:47.863Z,4988.00
2023-05-15T13:07:46.502Z,5080.00
2023-05-15T13:08:47.862Z,5216.00
2023-05-15T13:09:46.597Z,5432.00
2023-05-15T13:10:46.614Z,5612.00
2023-05-15T13:11:46.628Z,5688.00
2023-05-15T13:12:46.703Z,5836.00
2023-05-15T13:13:46.731Z,5540.00
2023-05-15T13:14:46.727Z,5392.00
2023-05-15T13:15:47.097Z,4756.00
2023-05-15T13:16:47.043Z,4372.00
2023-05-15T13:17:46.897Z,4624.00
2023-05-15T13:18:46.953Z,5140.00
2023-05-15T13:19:46.886Z,4728.00
2023-05-15T15:24:22.283Z,11152.00
2023-05-15T15:25:22.301Z,11368.00
2023-05-15T15:26:22.327Z,11408.00
2023-05-15T15:27:22.362Z,11576.00
2023-05-15T15:28:22.397Z,11584.00
2023-05-15T15:29:22.430Z,11748.00
2023-05-15T15:30:22.769Z,11880.00
2023-05-15T15:32:22.555Z,11708.00
2023-05-15T15:33:22.546Z,9968.00
2023-05-15T15:34:22.599Z,10056.00
2023-05-15T15:35:22.612Z,9848.00
2023-05-15T15:37:22.676Z,9492.00
2023-05-15T15:38:23.018Z,9240.00
2023-05-15T15:39:22.746Z,9064.00
2023-05-15T15:40:22.796Z,8940.00
2023-05-15T15:41:22.820Z,8928.00
2023-05-15T15:42:22.853Z,8876.00
2023-05-15T15:43:22.992Z,9088.00
2023-05-15T15:44:22.918Z,9152.00
2023-05-15T15:45:23.188Z,9696.00
2023-05-15T15:46:23.177Z,10592.00
2023-05-15T15:47:23.010Z,8572.00
2023-05-15T15:48:23.036Z,7648.00
2023-05-15T15:49:23.086Z,7456.00
2023-05-15T15:50:23.157Z,7432.00
2023-05-15T15:51:23.189Z,7308.00
2023-05-15T16:01:43.349Z,5160.00
2023-05-15T16:10:23.965Z,4788.00
2023-05-15T16:11:23.988Z,4668.00
2023-05-15T16:12:24.014Z,4568.00
2023-05-15T16:13:24.054Z,4524.00
2023-05-15T16:14:24.239Z,4548.00
2023-05-15T16:15:24.402Z,4404.00
2023-05-15T16:17:24.553Z,4108.00
2023-05-15T16:18:24.215Z,3960.00
2023-05-15T16:19:24.244Z,3852.00
2023-05-15T16:20:24.924Z,3868.00
2023-05-15T16:21:24.305Z,4004.00
2023-05-15T16:22:24.354Z,4184.00
2023-05-15T16:23:24.642Z,4280.00
2023-05-15T16:24:24.425Z,4212.00
2023-05-15T16:25:24.470Z,4032.00
2023-05-15T16:26:24.497Z,3784.00
2023-05-15T16:28:24.543Z,3548.00
2023-05-15T16:29:24.880Z,3612.00
2023-05-15T16:30:33.828Z,3728.00
2023-05-15T16:31:24.704Z,3888.00
2023-05-15T16:32:24.704Z,3992.00
2023-05-15T16:33:24.729Z,4124.00
2023-05-15T16:34:24.752Z,4284.00
2023-05-15T16:35:24.771Z,4460.00
2023-05-15T16:36:25.113Z,4480.00
2023-05-15T16:37:24.842Z,4484.00
2023-05-15T16:38:24.875Z,4472.00
2023-05-15T16:39:24.911Z,4468.00
2023-05-15T16:40:25.141Z,4448.00
2023-05-15T16:41:24.974Z,4484.00
2023-05-15T16:42:25.016Z,4232.00
2023-05-15T16:43:25.352Z,3948.00
2023-05-15T16:44:25.080Z,3776.00
2023-05-15T16:45:25.121Z,3644.00
2023-05-15T16:46:25.255Z,3576.00
2023-05-15T16:47:25.229Z,3560.00
2023-05-15T16:48:25.216Z,3484.00
2023-05-15T16:49:25.278Z,3388.00
2023-05-15T16:50:25.835Z,3284.00
2023-05-15T16:51:25.323Z,3164.00
2023-05-15T16:53:25.462Z,3044.00
2023-05-15T16:54:25.422Z,3028.00
2023-05-15T16:55:25.468Z,2988.00
2023-05-15T16:56:25.484Z,2932.00
2023-05-15T16:57:25.832Z,2864.00
2023-05-15T16:58:25.552Z,2764.00
2023-05-15T16:59:25.585Z,2632.00
2023-05-15T17:00:25.799Z,2464.00
2023-05-15T17:01:25.766Z,2300.00
2023-05-15T17:02:25.753Z,2204.00
2023-05-15T17:03:25.853Z,2096.00
2023-05-15T17:04:26.011Z,2000.00
2023-05-15T17:05:25.808Z,1888.00
2023-05-15T17:07:25.857Z,1680.00
2023-05-15T17:08:25.987Z,1624.00
2023-05-15T17:09:25.928Z,1616.00
2023-05-15T17:10:26.201Z,1628.00
2023-05-15T17:11:26.289Z,1660.00
2023-05-15T17:12:26.025Z,1708.00
2023-05-15T17:13:27.731Z,1756.00
2023-05-15T17:14:26.088Z,1776.00
2023-05-15T17:15:26.412Z,1772.00
2023-05-15T17:16:26.155Z,1740.00
2023-05-15T17:17:26.243Z,1672.00
2023-05-15T17:18:26.518Z,1580.00
2023-05-15T17:19:26.254Z,1480.00
2023-05-15T17:20:26.290Z,1388.00
2023-05-15T17:21:26.341Z,1320.00
2023-05-15T17:22:26.358Z,1300.00
2023-05-15T17:23:26.709Z,1324.00
2023-05-15T17:24:35.351Z,1360.00
2023-05-15T17:25:26.662Z,1416.00
2023-05-15T17:26:26.486Z,1368.00
2023-05-15T17:27:26.535Z,1296.00
2023-05-15T17:28:26.552Z,1184.00
2023-05-15T17:29:26.586Z,1128.00
2023-05-15T17:30:26.776Z,1052.00
2023-05-15T17:31:26.962Z,1012.00
2023-05-15T17:32:26.735Z,1024.00
2023-05-15T17:33:26.809Z,1072.00
2023-05-15T17:34:26.766Z,1068.00
2023-05-15T17:35:27.943Z,1076.00
2023-05-15T17:36:26.899Z,1088.00
2023-05-15T17:37:27.178Z,1104.00
2023-05-15T17:38:26.893Z,1116.00
2023-05-15T17:39:26.931Z,1104.00
2023-05-15T17:40:26.968Z,1092.00
2023-05-15T17:42:27.020Z,1080.00
2023-05-15T17:43:27.358Z,972.00
2023-05-15T17:44:27.090Z,880.00
2023-05-15T17:45:27.370Z,868.00
2023-05-15T17:46:27.206Z,928.00
2023-05-15T17:47:27.254Z,928.00
2023-05-15T17:49:27.511Z,840.00
2023-05-15T17:50:27.292Z,820.00
2023-05-15T17:51:27.331Z,708.00
2023-05-15T17:52:27.377Z,624.00
2023-05-15T17:53:27.420Z,616.00
2023-05-15T17:54:27.420Z,604.00
2023-05-15T17:55:27.683Z,640.00
2023-05-15T17:56:27.735Z,688.00
2023-05-15T17:57:27.523Z,652.00
2023-05-15T17:58:27.558Z,596.00
2023-05-15T17:59:27.600Z,676.00
2023-05-15T18:00:27.619Z,760.00
2023-05-15T18:01:27.675Z,768.00
2023-05-15T18:02:27.730Z,844.00
2023-05-15T18:03:28.093Z,936.00
2023-05-15T18:04:27.760Z,964.00
2023-05-15T18:05:28.194Z,976.00
2023-05-15T18:06:27.820Z,972.00
2023-05-15T18:07:27.854Z,984.00
2023-05-15T18:08:27.878Z,1012.00
2023-05-15T18:09:27.955Z,1044.00
2023-05-15T18:10:28.251Z,1064.00
2023-05-15T18:11:28.007Z,1072.00
2023-05-15T18:12:28.039Z,1064.00
2023-05-15T18:13:28.069Z,1048.00
2023-05-15T18:14:28.087Z,1024.00
2023-05-15T18:15:28.321Z,984.00
2023-05-15T18:16:28.242Z,940.00
2023-05-15T18:17:28.457Z,876.00
2023-05-15T18:18:28.267Z,800.00
2023-05-15T18:19:28.262Z,728.00
2023-05-15T18:22:28.349Z,628.00
2023-05-15T18:23:28.681Z,672.00
2023-05-15T18:24:28.711Z,676.00
2023-05-15T18:25:28.742Z,692.00
2023-05-15T18:26:28.475Z,708.00
2023-05-15T18:27:28.515Z,700.00
2023-05-15T18:28:28.542Z,688.00
2023-05-15T18:29:28.582Z,680.00
2023-05-15T18:30:28.606Z,660.00
2023-05-15T18:31:29.005Z,632.00
2023-05-15T18:33:28.701Z,572.00
2023-05-15T18:34:28.741Z,544.00
2023-05-15T18:35:28.877Z,512.00
2023-05-15T18:36:28.804Z,452.00
2023-05-15T18:37:28.843Z,380.00
2023-05-15T18:38:29.187Z,344.00
2023-05-15T18:39:28.902Z,356.00
2023-05-15T18:40:28.936Z,408.00
2023-05-15T18:42:29.022Z,348.00
2023-05-15T18:43:29.055Z,308.00
2023-05-15T18:44:29.076Z,276.00
2023-05-15T18:45:29.432Z,260.00
2023-05-15T18:46:29.168Z,240.00
2023-05-15T18:47:29.210Z,208.00
2023-05-15T18:48:29.197Z,196.00
2023-05-15T18:49:29.238Z,184.00
2023-05-15T18:50:29.262Z,164.00
2023-05-15T18:51:29.294Z,148.00
2023-05-15T18:52:29.630Z,128.00
2023-05-15T18:53:29.362Z,108.00
2023-05-15T18:54:29.402Z,92.00
2023-05-15T18:55:29.426Z,84.00
2023-05-15T18:56:29.464Z,76.00
2023-05-15T18:57:29.584Z,72.00
2023-05-15T18:58:29.570Z,68.00
2023-05-15T18:59:29.862Z,56.00
2023-05-15T19:00:37.918Z,48.00
2023-05-15T19:01:29.654Z,36.00
2023-05-15T19:02:29.717Z,32.00
2023-05-15T19:03:29.769Z,32.00
2023-05-15T19:04:29.732Z,28.00
2023-05-15T19:05:29.766Z,28.00
2023-05-15T19:06:30.087Z,28.00
2023-05-15T19:07:29.842Z,28.00
2023-05-15T19:08:29.903Z,24.00
2023-05-15T19:09:29.894Z,20.00
2023-05-15T19:10:29.930Z,20.00
2023-05-15T19:11:29.991Z,20.00
2023-05-15T19:12:29.978Z,12.00
2023-05-15T19:13:30.333Z,16.00
2023-05-15T19:14:30.069Z,12.00
2023-05-15T19:16:30.142Z,12.00
2023-05-15T19:18:30.192Z,12.00
2023-05-15T19:19:30.543Z,16.00
2023-05-15T19:20:30.232Z,16.00
2023-05-15T19:21:30.270Z,16.00
2023-05-15T19:22:30.298Z,16.00
2023-05-15T19:23:30.355Z,16.00
2023-05-15T19:24:32.713Z,12.00
2023-05-15T19:25:30.761Z,12.00
2023-05-15T19:26:30.505Z,12.00
2023-05-15T19:27:30.611Z,8.00
2023-05-15T19:28:30.531Z,8.00
2023-05-15T19:29:30.531Z,8.00
2023-05-15T19:30:30.581Z,8.00
2023-05-15T19:31:32.241Z,8.00
2023-05-15T19:32:30.693Z,4.00
2023-05-15T19:34:30.696Z,4.00
2023-05-15T19:36:30.962Z,4.00
2023-05-15T19:37:30.827Z,4.00
2023-05-15T19:38:31.110Z,0.00
2023-05-15T19:39:30.853Z,0.00
2023-05-15T19:40:30.892Z,0.00
2023-05-15T19:41:30.914Z,0.00
2023-05-15T19:42:30.939Z,0.00
2023-05-15T19:43:30.973Z,0.00
2023-05-15T19:44:31.068Z,0.00
2023-05-15T19:45:31.441Z,0.00
2023-05-15T19:46:31.132Z,0.00
2023-05-15T19:47:31.121Z,0.00
2023-05-15T19:48:31.222Z,0.00
2023-05-15T19:49:31.197Z,0.00
2023-05-15T19:50:33.203Z,0.00
2023-05-15T19:51:31.225Z,0.00
2023-05-15T19:52:31.549Z,0.00
2023-05-15T19:53:31.355Z,0.00
2023-05-15T19:54:31.320Z,0.00
2023-05-15T19:55:31.473Z,0.00
2023-05-15T19:56:31.382Z,0.00
2023-05-15T19:57:31.420Z,0.00
2023-05-15T19:58:31.454Z,0.00
2023-05-15T19:59:31.814Z,0.00
2023-05-15T20:00:31.515Z,0.00
2023-05-15T20:01:31.613Z,0.00
2023-05-15T20:02:31.643Z,0.00
2023-05-15T20:03:31.709Z,0.00
2023-05-15T20:04:31.630Z,0.00
2023-05-15T20:05:31.685Z,0.00
2023-05-15T20:06:32.002Z,0.00
2023-05-15T20:07:31.741Z,0.00
2023-05-15T20:08:31.761Z,0.00
2023-05-15T20:09:31.790Z,0.00
2023-05-15T20:10:31.839Z,0.00
2023-05-15T20:11:31.854Z,0.00
2023-05-15T20:12:31.887Z,0.00
2023-05-15T20:13:32.218Z,0.00
2023-05-15T20:14:31.947Z,0.00
2023-05-15T20:15:32.031Z,0.00
2023-05-15T20:16:32.119Z,0.00
2023-05-15T20:17:32.097Z,0.00
2023-05-15T20:18:34.394Z,0.00
2023-05-15T20:19:32.111Z,0.00
2023-05-15T20:20:32.433Z,0.00
2023-05-15T20:21:32.287Z,0.00
2023-05-15T20:22:32.204Z,0.00
2023-05-15T20:23:32.232Z,0.00
2023-05-15T20:24:32.276Z,0.00
2023-05-15T20:25:32.291Z,0.00
2023-05-15T20:26:32.425Z,0.00
2023-05-15T20:27:32.670Z,0.00
2023-05-15T20:28:32.387Z,0.00
2023-05-15T20:29:32.420Z,0.00
2023-05-15T20:31:32.494Z,0.00
2023-05-15T20:32:32.581Z,0.00
2023-05-15T20:33:32.683Z,0.00
2023-05-15T20:34:32.923Z,0.00
2023-05-15T20:35:32.632Z,0.00
2023-05-15T20:36:32.642Z,0.00
2023-05-15T20:37:32.666Z,0.00
2023-05-15T20:39:32.760Z,0.00
2023-05-15T20:40:32.783Z,0.00
2023-05-15T20:41:33.096Z,0.00
2023-05-15T20:42:32.824Z,0.00
2023-05-15T20:43:32.854Z,0.00
2023-05-15T20:44:32.895Z,0.00
2023-05-15T20:45:32.982Z,0.00
2023-05-15T20:46:33.105Z,0.00
2023-05-15T20:47:33.040Z,0.00
2023-05-15T20:49:33.370Z,0.00
2023-05-15T20:50:33.103Z,0.00
2023-05-15T20:51:33.110Z,0.00
2023-05-15T20:52:33.139Z,0.00
2023-05-15T20:53:33.169Z,0.00
2023-05-15T20:54:33.228Z,0.00
2023-05-15T20:56:33.270Z,0.00
2023-05-15T20:57:33.608Z,0.00
2023-05-15T20:58:33.350Z,0.00
2023-05-15T20:59:33.361Z,0.00
2023-05-15T21:00:33.407Z,0.00
2023-05-15T21:01:33.440Z,0.00
2023-05-15T21:02:33.488Z,0.00
2023-05-15T21:03:33.513Z,0.00
2023-05-15T21:04:33.816Z,0.00
2023-05-15T21:06:33.602Z,0.00
2023-05-15T21:07:33.616Z,0.00
2023-05-15T21:09:33.703Z,0.00
2023-05-15T21:10:33.727Z,0.00
2023-05-15T21:11:34.059Z,0.00
2023-05-15T21:12:33.767Z,0.00
2023-05-15T21:13:33.800Z,0.00
2023-05-15T21:14:33.835Z,0.00
2023-05-15T21:17:33.959Z,0.00
2023-05-15T21:19:34.241Z,0.00
2023-05-15T21:20:35.339Z,0.00
2023-05-15T21:21:34.052Z,0.00
2023-05-15T21:22:34.114Z,0.00
2023-05-15T21:23:34.219Z,0.00
2023-05-15T21:24:34.146Z,0.00
2023-05-15T21:25:34.168Z,0.00
2023-05-15T21:26:34.453Z,0.00
2023-05-15T21:27:34.239Z,0.00
2023-05-15T21:28:34.273Z,0.00
2023-05-15T21:29:34.301Z,0.00
2023-05-15T21:30:34.324Z,0.00
2023-05-15T21:33:34.672Z,0.00
2023-05-15T21:35:34.482Z,0.00
2023-05-15T21:37:34.544Z,0.00
2023-05-15T21:38:34.614Z,0.00
2023-05-15T21:39:34.612Z,0.00
2023-05-15T21:40:34.948Z,0.00
2023-05-15T21:41:34.673Z,0.00
2023-05-15T21:42:34.700Z,0.00
2023-05-15T21:43:34.729Z,0.00
2023-05-15T21:44:34.764Z,0.00
2023-05-15T21:45:34.795Z,0.00
2023-05-15T21:46:34.852Z,0.00
2023-05-15T21:47:35.166Z,0.00
2023-05-15T21:48:34.985Z,0.00
2023-05-15T21:49:34.931Z,0.00
2023-05-15T21:51:34.979Z,0.00
2023-05-15T21:52:35.015Z,0.00
2023-05-15T21:53:35.047Z,0.00
2023-05-15T21:54:35.391Z,0.00
2023-05-15T21:55:35.104Z,0.00
2023-05-15T21:56:35.138Z,0.00
2023-05-15T21:58:35.198Z,0.00
2023-05-15T21:59:35.224Z,0.00
2023-05-15T22:00:35.254Z,0.00
2023-05-15T22:01:35.624Z,0.00
2023-05-15T22:02:35.424Z,0.00
2023-05-15T22:03:35.470Z,0.00
2023-05-15T22:04:35.400Z,0.00
2023-05-15T22:05:35.420Z,0.00
2023-05-15T22:06:35.441Z,0.00
2023-05-15T22:08:35.813Z,0.00
2023-05-15T22:09:35.534Z,0.00
2023-05-15T22:10:35.592Z,0.00
2023-05-15T22:11:35.593Z,0.00
2023-05-15T22:12:35.638Z,0.00
2023-05-15T22:13:35.659Z,0.00
2023-05-15T22:14:36.339Z,0.00
2023-05-15T22:15:36.021Z,0.00
2023-05-15T22:16:35.796Z,0.00
2023-05-15T22:17:35.812Z,0.00
2023-05-15T22:19:35.885Z,0.00
2023-05-15T22:21:35.910Z,0.00
2023-05-15T22:22:36.257Z,0.00
2023-05-15T22:23:35.968Z,0.00
2023-05-15T22:24:36.012Z,0.00
2023-05-15T22:25:36.027Z,0.00
2023-05-15T22:26:36.085Z,0.00
2023-05-15T22:27:36.100Z,0.00
2023-05-15T22:28:36.433Z,0.00
2023-05-15T22:29:36.155Z,0.00
2023-05-15T22:30:36.195Z,0.00
2023-05-15T22:31:36.279Z,0.00
2023-05-15T22:32:36.327Z,0.00
2023-05-15T22:33:36.272Z,0.00
2023-05-15T22:34:36.611Z,0.00
2023-05-15T22:35:36.334Z,0.00
2023-05-15T22:36:36.375Z,0.00
2023-05-15T22:37:36.398Z,0.00
2023-05-15T22:38:36.452Z,0.00
2023-05-15T22:40:36.798Z,0.00
2023-05-15T22:41:36.521Z,0.00
2023-05-15T22:42:36.578Z,0.00
2023-05-15T22:43:36.595Z,0.00
2023-05-15T22:44:36.611Z,0.00
2023-05-15T22:47:36.738Z,0.00
2023-05-15T22:48:37.106Z,0.00
2023-05-15T22:49:36.769Z,0.00
2023-05-15T22:50:36.810Z,0.00
2023-05-15T22:51:36.874Z,0.00
2023-05-15T22:53:36.891Z,0.00
2023-05-15T22:54:37.171Z,0.00
2023-05-15T22:55:36.949Z,0.00
2023-05-15T22:57:37.022Z,0.00
2023-05-15T22:58:37.077Z,0.00
2023-05-15T22:59:37.079Z,0.00
2023-05-15T23:00:37.106Z,0.00
2023-05-15T23:01:37.456Z,0.00
2023-05-15T23:02:37.192Z,0.00
2023-05-15T23:03:37.265Z,0.00
2023-05-15T23:04:37.236Z,0.00
2023-05-15T23:05:37.257Z,0.00
2023-05-15T23:06:37.289Z,0.00
2023-05-15T23:07:37.327Z,0.00
2023-05-15T23:08:37.652Z,0.00
2023-05-15T23:09:37.380Z,0.00
2023-05-15T23:10:37.412Z,0.00
2023-05-15T23:11:37.491Z,0.00
2023-05-15T23:13:37.505Z,0.00
2023-05-15T23:14:37.556Z,0.00
2023-05-15T23:15:37.946Z,0.00
2023-05-15T23:16:37.646Z,0.00
2023-05-15T23:17:37.660Z,0.00
2023-05-15T23:18:37.716Z,0.00
2023-05-15T23:19:37.703Z,0.00
2023-05-15T23:20:37.726Z,0.00
2023-05-15T23:21:37.754Z,0.00
2023-05-15T23:22:38.082Z,0.00
2023-05-15T23:24:37.846Z,0.00
2023-05-15T23:25:37.875Z,0.00
2023-05-15T23:26:37.905Z,0.00
2023-05-15T23:27:37.934Z,0.00
2023-05-15T23:28:37.984Z,0.00
2023-05-15T23:29:38.296Z,0.00
2023-05-15T23:30:38.057Z,0.00
2023-05-15T23:33:38.124Z,0.00
2023-05-15T23:34:38.151Z,0.00
2023-05-15T23:35:38.180Z,0.00
2023-05-15T23:36:38.512Z,0.00
2023-05-15T23:37:38.243Z,0.00
2023-05-15T23:39:38.305Z,0.00
2023-05-15T23:40:38.339Z,0.00
2023-05-15T23:41:38.372Z,0.00
2023-05-15T23:42:38.409Z,0.00
2023-05-15T23:43:38.676Z,0.00
2023-05-15T23:44:38.459Z,0.00
2023-05-15T23:45:38.489Z,0.00
2023-05-15T23:46:38.683Z,0.00
2023-05-15T23:48:38.581Z,0.00
2023-05-15T23:49:38.610Z,0.00
2023-05-15T23:50:38.941Z,0.00
2023-05-15T23:51:38.678Z,0.00
2023-05-15T23:52:38.702Z,0.00